createdAt,value
2023-04-30T11:36:18.066Z,17.40
2023-04-30T11:45:27.580Z,16.90
2023-04-30T11:48:17.601Z,16.50
2023-04-30T11:51:15.732Z,16.90
2023-04-30T12:23:20.331Z,21.40
2023-04-30T12:32:02.570Z,21.40
2023-04-30T12:34:51.766Z,22.30
2023-04-30T12:37:44.485Z,22.40
2023-04-30T12:40:35.200Z,23.10
2023-04-30T12:43:24.340Z,23.10
2023-04-30T12:46:13.741Z,23.20
2023-04-30T12:49:02.979Z,23.90
2023-04-30T12:51:51.860Z,24.50
2023-04-30T12:54:41.954Z,24.30
2023-04-30T12:57:33.103Z,24.60
2023-04-30T14:52:52.504Z,19.70
2023-04-30T14:55:41.625Z,19.20
2023-04-30T14:58:30.235Z,18.30
2023-04-30T15:01:18.833Z,17.70
2023-04-30T15:04:07.701Z,17.10
2023-04-30T15:06:56.424Z,16.80
2023-04-30T15:09:46.848Z,16.60
2023-04-30T15:12:35.960Z,16.70
2023-04-30T15:15:27.994Z,16.90
2023-04-30T15:18:17.219Z,17.10
2023-04-30T15:21:06.179Z,17.30
2023-04-30T15:23:54.778Z,17.00
2023-04-30T15:26:45.234Z,16.70
2023-04-30T15:29:33.836Z,16.60
2023-04-30T15:32:22.469Z,16.50
2023-04-30T15:35:11.358Z,16.50
2023-04-30T15:37:59.957Z,16.70
2023-04-30T15:40:48.578Z,16.90
2023-04-30T15:43:38.562Z,17.20
2023-04-30T15:46:27.130Z,17.30
2023-04-30T15:49:15.979Z,17.30
2023-04-30T15:52:04.582Z,16.90
2023-04-30T15:54:53.150Z,16.60
2023-04-30T15:57:41.970Z,16.40
2023-04-30T16:00:33.707Z,16.30
2023-04-30T16:03:22.399Z,16.40
2023-04-30T16:06:11.186Z,16.40
2023-04-30T16:09:00.595Z,16.50
2023-04-30T16:11:49.364Z,16.50
2023-04-30T16:14:37.963Z,16.40
2023-04-30T16:17:28.032Z,16.40
2023-04-30T16:20:16.641Z,16.30
2023-04-30T16:23:06.019Z,16.20
2023-04-30T16:25:55.159Z,16.10
2023-04-30T16:28:43.730Z,16.10
2023-04-30T16:31:32.544Z,16.00
2023-04-30T16:34:22.608Z,15.90
2023-04-30T16:37:11.532Z,15.90
2023-04-30T16:40:01.674Z,16.00
2023-04-30T16:42:50.555Z,16.10
2023-04-30T16:45:39.228Z,16.10
2023-04-30T16:48:27.823Z,16.00
2023-04-30T16:51:17.786Z,15.90
2023-04-30T16:54:06.367Z,15.70
2023-04-30T16:56:54.911Z,15.50
2023-04-30T16:59:43.516Z,15.40
2023-04-30T17:02:32.126Z,15.40
2023-04-30T17:05:21.409Z,15.30
2023-04-30T17:08:11.384Z,15.40
2023-04-30T17:10:59.932Z,15.40
2023-04-30T17:13:48.527Z,15.40
2023-04-30T17:16:37.202Z,15.40
2023-04-30T17:19:25.980Z,15.40
2023-04-30T17:22:15.128Z,15.30
2023-04-30T17:25:05.392Z,15.20
2023-04-30T17:27:54.421Z,15.10
2023-04-30T17:30:44.697Z,15.00
2023-04-30T17:33:33.341Z,14.90
2023-04-30T17:36:21.899Z,14.80
2023-04-30T17:39:10.527Z,14.90
2023-04-30T17:42:00.936Z,14.90
2023-04-30T17:44:50.198Z,15.00
2023-04-30T17:47:39.077Z,15.00
2023-04-30T17:50:27.773Z,14.90
2023-04-30T17:53:16.354Z,14.80
2023-04-30T17:56:04.997Z,14.80
2023-04-30T17:58:55.872Z,14.60
2023-04-30T18:01:44.494Z,14.50
2023-04-30T18:04:33.170Z,14.40
2023-04-30T18:07:21.763Z,14.30
2023-04-30T18:10:10.979Z,14.20
2023-04-30T18:13:00.300Z,14.10
2023-04-30T18:15:51.573Z,14.00
2023-04-30T18:18:41.114Z,13.90
2023-04-30T18:21:29.697Z,13.90
2023-04-30T18:24:19.282Z,13.70
2023-04-30T18:27:08.434Z,13.60
2023-04-30T18:29:58.169Z,13.50
2023-04-30T18:32:48.292Z,13.50
2023-04-30T18:35:37.697Z,13.40
2023-04-30T18:38:27.098Z,13.30
2023-04-30T18:41:15.696Z,13.10
2023-04-30T18:44:04.373Z,13.00
2023-04-30T18:46:52.897Z,12.90
2023-04-30T18:49:43.849Z,12.80
2023-04-30T18:52:32.402Z,12.70
2023-04-30T18:55:21.127Z,12.60
2023-04-30T18:58:09.668Z,12.40
2023-04-30T19:00:58.851Z,12.30
2023-04-30T19:03:47.486Z,12.20
2023-04-30T19:06:37.759Z,12.20
2023-04-30T19:09:26.480Z,12.10
2023-04-30T19:12:16.123Z,12.00
2023-04-30T19:15:05.116Z,11.90
2023-04-30T19:17:53.742Z,11.80
2023-04-30T19:20:43.000Z,11.70
2023-04-30T19:23:32.951Z,11.70
2023-04-30T19:26:22.761Z,11.50
2023-04-30T19:29:11.365Z,11.50
2023-04-30T19:32:00.621Z,11.40
2023-04-30T19:34:49.265Z,11.30
2023-04-30T19:37:37.861Z,11.30
2023-04-30T19:40:27.831Z,11.20
2023-04-30T19:43:16.396Z,11.20
2023-04-30T19:46:05.005Z,11.10
2023-04-30T19:48:53.658Z,11.00
2023-04-30T19:51:42.256Z,11.00
2023-04-30T19:54:30.814Z,11.00
2023-04-30T19:57:20.928Z,10.90
2023-04-30T20:00:13.011Z,10.80
2023-04-30T20:03:04.537Z,10.80
2023-04-30T20:05:53.376Z,10.80
2023-04-30T20:08:41.913Z,10.80
2023-04-30T20:11:30.527Z,10.80
2023-04-30T20:14:21.462Z,10.70
2023-04-30T20:17:10.060Z,10.70
2023-04-30T20:19:58.711Z,10.70
2023-04-30T20:22:47.981Z,10.60
2023-04-30T20:25:36.556Z,10.60
2023-04-30T20:28:25.099Z,10.50
2023-04-30T20:31:15.343Z,10.50
2023-04-30T20:34:04.078Z,10.50
2023-04-30T20:36:52.915Z,10.50
2023-04-30T20:39:42.671Z,10.60
2023-04-30T20:42:31.289Z,10.60
2023-04-30T20:45:21.155Z,10.60
2023-04-30T20:48:11.329Z,10.70
2023-04-30T20:51:00.032Z,10.70
2023-04-30T20:53:48.577Z,10.70
2023-04-30T20:56:37.323Z,10.70
2023-04-30T20:59:25.925Z,10.70
2023-04-30T21:02:14.600Z,10.80
2023-04-30T21:05:06.192Z,10.80
2023-04-30T21:07:54.756Z,10.90
2023-04-30T21:10:43.441Z,10.90
2023-04-30T21:13:32.824Z,10.90
2023-04-30T21:16:21.830Z,10.90
2023-04-30T21:19:11.227Z,10.80
2023-04-30T21:22:01.354Z,10.80
2023-04-30T21:24:49.909Z,10.80
2023-04-30T21:27:38.498Z,10.80
2023-04-30T21:30:27.287Z,10.80
2023-04-30T21:33:15.926Z,10.80
2023-04-30T21:36:04.667Z,10.70
2023-04-30T21:38:55.565Z,10.70
2023-04-30T21:41:44.208Z,10.60
2023-04-30T21:44:33.869Z,10.50
2023-04-30T21:47:22.516Z,10.40
2023-04-30T21:50:11.858Z,10.50
2023-04-30T21:53:00.454Z,10.50
2023-04-30T21:55:50.606Z,10.50
2023-04-30T21:58:39.574Z,10.60
2023-04-30T22:01:30.093Z,10.60
2023-04-30T22:04:21.269Z,10.60
2023-04-30T22:07:09.857Z,10.60
2023-04-30T22:09:58.598Z,10.60
2023-04-30T22:12:48.786Z,10.60
2023-04-30T22:15:47.664Z,10.60
2023-04-30T22:18:37.206Z,10.70
2023-04-30T22:21:25.960Z,10.80
2023-04-30T22:24:15.428Z,10.80
2023-04-30T22:27:03.990Z,10.80
2023-04-30T22:29:54.226Z,10.70
2023-04-30T22:32:43.148Z,10.70
2023-04-30T22:35:32.935Z,10.70
2023-04-30T22:38:21.557Z,10.70
2023-04-30T22:41:10.157Z,10.60
2023-04-30T22:43:58.740Z,10.50
2023-04-30T22:46:49.188Z,10.50
2023-04-30T22:49:38.996Z,10.50
2023-04-30T22:52:29.593Z,10.40
2023-04-30T22:55:18.538Z,10.40
2023-04-30T22:58:07.263Z,10.30
2023-04-30T23:00:55.836Z,10.30
2023-04-30T23:03:45.934Z,10.30
2023-04-30T23:06:35.536Z,10.30
2023-04-30T23:09:33.161Z,10.30
2023-04-30T23:12:22.558Z,10.30
2023-04-30T23:15:11.626Z,10.20
2023-04-30T23:18:00.467Z,10.20
2023-04-30T23:20:50.929Z,10.20
2023-04-30T23:23:39.739Z,10.20
2023-04-30T23:26:28.634Z,10.10
2023-04-30T23:29:17.270Z,10.20
2023-04-30T23:32:06.133Z,10.20
2023-04-30T23:34:54.726Z,10.20
2023-04-30T23:37:44.714Z,10.10
2023-04-30T23:40:33.275Z,10.10
2023-04-30T23:43:21.894Z,10.10
2023-04-30T23:46:10.465Z,10.00
2023-04-30T23:48:59.001Z,10.10
2023-04-30T23:51:47.545Z,10.10
2023-04-30T23:54:37.772Z,10.10
2023-04-30T23:57:28.150Z,10.10
